Time;durP1;ratioP1;P1;durP2;ratioP2;P2;SDS_P1;SDS_P2;PMS_P1;PMS_P2;Temp;Humidity;BMP_temperature;BMP_pressure;BME280_temperature;BME280_humidity;BME280_pressure;Samples;Min_cycle;Max_cycle;Signal;HPM_P1;HPM_P2
2022/10/21 00:04:51;;;;;;;31.23;17.38;;;;;;;12.08;100.00;100523.56;10493240;28;20460;-64
2022/10/21 00:09:52;;;;;;;39.47;17.80;;;;;;;11.97;100.00;100514.47;10497786;28;20076;-64
2022/10/21 00:14:56;;;;;;;46.53;17.55;;;;;;;11.92;100.00;100518.25;10504370;28;20117;-63
2022/10/21 00:19:58;;;;;;;39.88;19.38;;;;;;;11.87;100.00;100515.06;10504309;28;20090;-65
2022/10/21 00:25:00;;;;;;;35.47;18.38;;;;;;;11.95;100.00;100518.09;10503926;28;20106;-64
2022/10/21 00:30:06;;;;;;;33.05;18.75;;;;;;;12.00;100.00;100499.56;10503199;28;20095;-64
2022/10/21 00:35:08;;;;;;;38.72;19.63;;;;;;;11.99;100.00;100503.94;10501380;28;20048;-65
2022/10/21 00:40:11;;;;;;;53.92;19.92;;;;;;;11.98;100.00;100502.25;10503382;28;20058;-65
2022/10/21 00:45:24;;;;;;;44.78;18.95;;;;;;;11.94;100.00;100505.97;10503228;28;20068;-64
2022/10/21 00:50:36;;;;;;;45.22;19.70;;;;;;;11.97;100.00;100501.41;10502573;28;20052;-64
2022/10/21 00:55:45;;;;;;;43.50;22.03;;;;;;;12.03;100.00;100494.16;10502805;28;20049;-64
2022/10/21 01:00:54;;;;;;;39.80;19.25;;;;;;;12.03;100.00;100484.53;10502373;28;20326;-64
2022/10/21 01:06:01;;;;;;;37.47;19.90;;;;;;;11.95;100.00;100479.72;10500035;28;20129;-65
2022/10/21 01:11:05;;;;;;;40.63;19.73;;;;;;;11.97;100.00;100474.41;10501780;28;20060;-64
2022/10/21 01:16:20;;;;;;;43.28;20.50;;;;;;;11.92;100.00;100473.81;10502211;28;20040;-64
2022/10/21 01:21:36;;;;;;;48.30;19.17;;;;;;;11.70;100.00;100467.09;10501563;28;20075;-64
2022/10/21 01:27:16;;;;;;;57.92;20.33;;;;;;;11.64;100.00;100457.00;10501396;28;20079;-64
2022/10/21 01:32:33;;;;;;;40.80;19.55;;;;;;;11.57;100.00;100440.81;10496919;28;20453;-63
2022/10/21 01:37:49;;;;;;;47.50;18.50;;;;;;;11.57;100.00;100438.19;10498655;28;20058;-65
2022/10/21 01:42:57;;;;;;;44.53;20.00;;;;;;;11.46;100.00;100428.28;10500666;28;20052;-64
2022/10/21 01:48:08;;;;;;;43.42;19.65;;;;;;;11.44;100.00;100424.94;10500769;28;20055;-64
2022/10/21 01:53:15;;;;;;;44.28;18.35;;;;;;;11.35;100.00;100417.59;10499981;28;20117;-64
2022/10/21 01:58:23;;;;;;;53.38;18.58;;;;;;;11.20;100.00;100410.44;10500258;28;20559;-64
2022/10/21 02:03:34;;;;;;;40.88;17.50;;;;;;;11.15;100.00;100409.03;10497745;28;20117;-64
2022/10/21 02:08:36;;;;;;;49.00;19.20;;;;;;;11.13;100.00;100411.72;10499855;28;20473;-65
2022/10/21 02:13:46;;;;;;;46.30;19.52;;;;;;;10.99;100.00;100407.19;10499174;28;20122;-65
2022/10/21 02:18:49;;;;;;;43.25;17.48;;;;;;;10.87;100.00;100379.94;10499139;28;20094;-64
2022/10/21 02:23:55;;;;;;;47.03;18.48;;;;;;;10.89;100.00;100379.88;10498667;28;20484;-64
2022/10/21 02:28:59;;;;;;;45.03;18.48;;;;;;;10.84;100.00;100389.72;10498688;28;20063;-64
2022/10/21 02:34:18;;;;;;;48.03;18.15;;;;;;;10.98;100.00;100392.44;10495555;28;20048;-64
2022/10/21 02:39:30;;;;;;;47.90;18.38;;;;;;;10.87;100.00;100390.38;10498178;28;20072;-64
2022/10/21 02:44:32;;;;;;;;;;;;;;;10.76;100.00;100390.94;10499180;28;20048;-64
2022/10/21 02:49:35;;;;;;;46.40;17.47;;;;;;;10.70;100.00;100383.41;10498528;28;19921;-64
2022/10/21 02:54:36;;;;;;;60.33;17.25;;;;;;;10.72;100.00;100378.09;10497709;28;20044;-64
2022/10/21 02:59:38;;;;;;;45.83;18.73;;;;;;;10.72;100.00;100381.56;10497478;28;20053;-65
2022/10/21 03:04:41;;;;;;;39.92;17.55;;;;;;;10.80;100.00;100373.34;10494858;28;20452;-64
2022/10/21 03:09:43;;;;;;;39.10;16.15;;;;;;;10.68;100.00;100378.25;10497589;28;20048;-63
2022/10/21 03:14:44;;;;;;;50.22;17.70;;;;;;;10.62;100.00;100375.13;10497062;28;20089;-65
2022/10/21 03:19:47;;;;;;;52.10;16.73;;;;;;;10.49;100.00;100380.94;10497188;28;20078;-64
2022/10/21 03:24:49;;;;;;;85.82;18.75;;;;;;;10.45;100.00;100384.63;10496897;28;20055;-64
2022/10/21 03:29:51;;;;;;;41.75;16.48;;;;;;;10.38;100.00;100388.44;10497065;28;20052;-65
2022/10/21 03:34:54;;;;;;;37.33;16.13;;;;;;;10.32;100.00;100389.56;10494401;28;20098;-64
2022/10/21 03:39:55;;;;;;;65.38;17.13;;;;;;;10.31;100.00;100372.25;10496291;28;20045;-65
2022/10/21 03:44:57;;;;;;;43.15;16.63;;;;;;;10.27;100.00;100376.75;10495730;28;20450;-64
2022/10/21 03:50:00;;;;;;;43.10;16.48;;;;;;;10.19;100.00;100368.44;10496287;28;20083;-65
2022/10/21 03:55:01;;;;;;;213.98;20.05;;;;;;;10.18;100.00;100361.56;10496130;28;20445;-64
2022/10/21 04:00:06;;;;;;;42.42;14.38;;;;;;;10.11;100.00;100360.16;10496144;28;20063;-66
2022/10/21 04:05:10;;;;;;;43.95;16.17;;;;;;;10.04;100.00;100370.91;10494058;28;20106;-64
2022/10/21 04:10:12;;;;;;;50.35;15.23;;;;;;;9.96;100.00;100367.78;10496084;28;20052;-64
2022/10/21 04:15:14;;;;;;;51.13;14.90;;;;;;;9.91;100.00;100375.00;10495829;28;20049;-64
2022/10/21 04:20:17;;;;;;;53.92;16.20;;;;;;;9.93;100.00;100362.75;10495723;28;20052;-64
2022/10/21 04:25:19;;;;;;;61.85;14.13;;;;;;;9.93;100.00;100367.97;10495396;28;20458;-65
2022/10/21 04:30:22;;;;;;;38.35;14.10;;;;;;;9.79;100.00;100366.81;10495854;28;20082;-63
2022/10/21 04:35:26;;;;;;;36.60;13.45;;;;;;;9.78;100.00;100377.31;10492861;28;20481;-64
2022/10/21 04:40:27;;;;;;;31.83;12.38;;;;;;;9.76;100.00;100371.34;10495049;28;20106;-64
2022/10/21 04:45:30;;;;;;;30.80;12.45;;;;;;;9.77;100.00;100384.31;10495022;28;20451;-64
2022/10/21 04:50:34;;;;;;;31.65;11.63;;;;;;;9.94;100.00;100369.63;10495199;28;20102;-64
2022/10/21 04:55:40;;;;;;;27.70;10.18;;;;;;;10.22;100.00;100370.91;10495290;28;20048;-64
2022/10/21 05:00:41;;;;;;;22.67;9.88;;;;;;;10.15;100.00;100366.91;10502432;28;20055;-64
2022/10/21 05:05:44;;;;;;;31.92;10.48;;;;;;;10.08;100.00;100365.50;10500645;28;20094;-67
2022/10/21 05:10:46;;;;;;;25.20;10.00;;;;;;;10.11;100.00;100365.38;10502018;28;20091;-64
2022/10/21 05:15:48;;;;;;;19.80;8.48;;;;;;;10.36;100.00;100365.03;10490484;28;20045;-64
2022/10/21 05:20:53;;;;;;;23.95;8.68;;;;;;;10.65;100.00;100354.09;10449838;28;20109;-64
2022/10/21 05:25:56;;;;;;;26.50;7.88;;;;;;;10.60;100.00;100356.09;10450227;28;20385;-64
2022/10/21 05:30:58;;;;;;;16.98;7.03;;;;;;;10.72;100.00;100347.66;10459332;28;20493;-64
2022/10/21 05:36:06;;;;;;;16.02;7.30;;;;;;;10.86;100.00;100335.63;10456682;28;20049;-65
2022/10/21 05:41:09;;;;;;;21.15;7.15;;;;;;;10.99;100.00;100317.56;10459405;28;20526;-64
2022/10/21 05:46:11;;;;;;;17.77;7.05;;;;;;;10.96;100.00;100315.97;10458541;28;20092;-64
2022/10/21 05:51:14;;;;;;;21.33;7.45;;;;;;;10.87;100.00;100311.22;10458130;28;20109;-65
2022/10/21 05:56:16;;;;;;;24.65;7.63;;;;;;;10.70;100.00;100318.16;10458453;28;20049;-65
2022/10/21 06:01:17;;;;;;;24.33;7.60;;;;;;;10.55;100.00;100318.00;10458643;28;20048;-65
2022/10/21 06:06:21;;;;;;;39.28;7.43;;;;;;;10.47;100.00;100320.16;10456056;28;20501;-64
2022/10/21 06:11:23;;;;;;;18.60;6.82;;;;;;;10.41;100.00;100321.28;10458256;28;20102;-64
2022/10/21 06:16:26;;;;;;;22.33;7.15;;;;;;;10.35;100.00;100312.94;10464156;28;20048;-65
2022/10/21 06:21:29;;;;;;;30.83;7.15;;;;;;;10.35;100.00;100310.31;10499666;28;20093;-64
2022/10/21 06:26:30;;;;;;;22.92;6.80;;;;;;;10.38;100.00;100315.38;10499405;28;20484;-64
2022/10/21 06:31:34;;;;;;;29.13;7.32;;;;;;;10.36;100.00;100319.81;10498341;28;20044;-64
2022/10/21 06:36:37;;;;;;;21.65;6.93;;;;;;;10.40;100.00;100324.00;10494026;28;20048;-65
2022/10/21 06:41:39;;;;;;;20.10;7.43;;;;;;;10.40;100.00;100339.66;10496623;28;20105;-64
2022/10/21 06:46:40;;;;;;;17.80;6.97;;;;;;;10.43;100.00;100350.75;10496638;28;20496;-65
2022/10/21 06:51:43;;;;;;;16.58;7.85;;;;;;;10.47;100.00;100351.47;10497081;28;20052;-65
2022/10/21 06:56:45;;;;;;;17.50;6.97;;;;;;;10.59;100.00;100355.25;10496309;28;20106;-65
2022/10/21 07:01:48;;;;;;;19.50;7.82;;;;;;;10.76;100.00;100371.81;10496456;28;20181;-65
2022/10/21 07:06:51;;;;;;;19.35;7.35;;;;;;;10.88;100.00;100384.22;10493890;28;20091;-65
2022/10/21 07:11:54;;;;;;;23.35;7.97;;;;;;;11.03;100.00;100395.69;10495840;28;20075;-64
2022/10/21 07:16:56;;;;;;;18.65;7.13;;;;;;;11.20;100.00;100397.38;10496531;28;20052;-65
2022/10/21 07:22:00;;;;;;;19.40;6.82;;;;;;;11.32;100.00;100385.47;10495372;28;20044;-64
2022/10/21 07:27:02;;;;;;;19.45;6.57;;;;;;;11.44;100.00;100389.19;10496630;28;20155;-64
2022/10/21 07:32:04;;;;;;;24.90;7.15;;;;;;;11.57;100.00;100384.13;10489684;28;20057;-65
2022/10/21 07:37:07;;;;;;;20.80;7.13;;;;;;;11.71;100.00;100396.44;10468714;28;20504;-64
2022/10/21 07:42:09;;;;;;;22.05;7.30;;;;;;;11.87;100.00;100397.41;10495455;28;20450;-64
2022/10/21 07:47:11;;;;;;;21.08;7.95;;;;;;;12.01;100.00;100407.09;10464059;28;20398;-64
2022/10/21 07:52:15;;;;;;;21.77;8.18;;;;;;;12.10;100.00;100409.22;10475407;28;20068;-65
2022/10/21 07:57:17;;;;;;;21.65;8.35;;;;;;;12.22;100.00;100405.09;10495137;28;20577;-65
2022/10/21 08:02:19;;;;;;;20.23;8.52;;;;;;;12.40;100.00;100418.03;10495255;28;20507;-65
2022/10/21 08:07:22;;;;;;;20.38;8.90;;;;;;;12.52;100.00;100414.72;10494012;28;20082;-66
2022/10/21 08:12:23;;;;;;;25.40;8.50;;;;;;;12.57;100.00;100398.75;10495254;28;20436;-65
2022/10/21 08:17:26;;;;;;;;;;;;;;;12.34;100.00;100393.94;10495916;28;20118;-65
2022/10/21 08:22:29;;;;;;;22.38;9.50;;;;;;;12.35;100.00;100406.06;10496176;28;19995;-64
2022/10/21 08:27:33;;;;;;;28.45;10.07;;;;;;;12.34;100.00;100414.84;10495989;28;20090;-65
2022/10/21 08:32:35;;;;;;;29.00;11.30;;;;;;;12.38;100.00;100438.25;10499103;28;20094;-65
2022/10/21 08:37:38;;;;;;;34.33;11.07;;;;;;;12.40;100.00;100431.13;10501637;28;20098;-65
2022/10/21 08:42:44;;;;;;;27.67;11.82;;;;;;;12.42;100.00;100426.66;10504057;28;20096;-64
2022/10/21 08:47:53;;;;;;;30.67;11.90;;;;;;;12.40;100.00;100425.91;10503803;28;20098;-65
2022/10/21 08:53:05;;;;;;;31.20;12.68;;;;;;;12.42;100.00;100424.06;10503037;28;20473;-64
2022/10/21 08:58:14;;;;;;;29.70;9.40;;;;;;;12.57;100.00;100436.25;10502765;28;20105;-65
2022/10/21 09:03:26;;;;;;;28.20;10.38;;;;;;;12.69;100.00;100454.81;10501054;28;20357;-65
2022/10/21 09:08:40;;;;;;;30.40;10.70;;;;;;;12.81;100.00;100448.84;10503035;28;20059;-64
2022/10/21 09:14:03;;;;;;;25.30;10.00;;;;;;;12.97;100.00;100437.47;10502205;28;20190;-64
2022/10/21 09:19:26;;;;;;;22.40;7.20;;;;;;;13.19;100.00;100438.81;10502128;28;20053;-64
2022/10/21 09:24:35;;;;;;;22.60;7.03;;;;;;;13.36;100.00;100441.28;10502235;28;20557;-64
2022/10/21 09:29:42;;;;;;;17.73;7.00;;;;;;;13.59;100.00;100446.88;10499950;28;20502;-64
2022/10/21 09:34:56;;;;;;;16.90;6.28;;;;;;;13.83;100.00;100437.63;10497410;28;20485;-64
2022/10/21 09:40:14;;;;;;;16.15;6.35;;;;;;;14.11;100.00;100438.47;10499629;28;20106;-63
2022/10/21 09:45:26;;;;;;;18.13;6.40;;;;;;;14.21;100.00;100442.22;10498895;28;20109;-64
2022/10/21 09:50:29;;;;;;;15.77;6.35;;;;;;;14.29;100.00;100439.06;10499195;28;20062;-65
2022/10/21 09:55:32;;;;;;;17.80;6.93;;;;;;;14.46;100.00;100437.97;10499175;28;20074;-64
2022/10/21 10:00:46;;;;;;;14.25;6.68;;;;;;;14.51;100.00;100443.75;10498752;28;20055;-63
2022/10/21 10:05:49;;;;;;;18.20;7.07;;;;;;;14.81;100.00;100452.38;10496250;28;20539;-64
2022/10/21 10:11:01;;;;;;;21.70;7.15;;;;;;;14.89;100.00;100451.88;10498256;28;20083;-64
2022/10/21 10:16:22;;;;;;;19.65;7.85;;;;;;;15.08;100.00;100459.34;10498324;28;20484;-64
2022/10/21 10:21:24;;;;;;;15.10;7.82;;;;;;;15.38;100.00;100466.09;10498451;28;20136;-63
2022/10/21 10:26:31;;;;;;;17.73;8.65;;;;;;;15.59;100.00;100465.53;10498078;28;20056;-64
2022/10/21 10:31:36;;;;;;;11.60;6.82;;;;;;;16.00;100.00;100460.97;10494205;28;20048;-63
2022/10/21 10:36:40;;;;;;;15.15;6.35;;;;;;;16.45;100.00;100454.25;10454117;28;20081;-64
2022/10/21 10:41:49;;;;;;;12.63;5.85;;;;;;;16.44;100.00;100452.56;10491874;28;20059;-64
2022/10/21 10:46:56;;;;;;;9.05;4.90;;;;;;;16.96;100.00;100452.25;10496043;28;20455;-64
2022/10/21 10:52:19;;;;;;;11.25;4.63;;;;;;;17.13;100.00;100456.28;10475467;28;20134;-64
2022/10/21 10:57:26;;;;;;;8.73;4.50;;;;;;;17.42;100.00;100458.47;10452795;28;20141;-63
2022/10/21 11:02:43;;;;;;;8.80;3.92;;;;;;;17.50;100.00;100461.38;10489470;28;20048;-65
2022/10/21 11:07:49;;;;;;;5.82;3.55;;;;;;;17.94;100.00;100451.84;10494030;28;20047;-63
2022/10/21 11:12:54;;;;;;;6.80;3.42;;;;;;;16.93;100.00;100445.44;10413418;28;20057;-64
2022/10/21 11:18:05;;;;;;;3.35;2.67;;;;;;;17.96;100.00;100424.34;10479428;28;20045;-64
2022/10/21 11:23:35;;;;;;;7.28;2.95;;;;;;;18.90;100.00;100432.63;10495112;28;20660;-65
2022/10/21 11:28:49;;;;;;;3.58;2.17;;;;;;;19.68;100.00;100426.03;10455400;28;20059;-64
2022/10/21 11:34:02;;;;;;;5.47;1.98;;;;;;;19.55;97.79;100447.44;10483177;28;20099;-63
2022/10/21 11:39:36;;;;;;;4.35;1.80;;;;;;;19.08;99.75;100453.19;10417877;28;20049;-64
2022/10/21 11:45:00;;;;;;;6.90;1.60;;;;;;;18.70;99.73;100453.66;10413138;28;20049;-64
2022/10/21 11:50:14;;;;;;;1.27;1.15;;;;;;;19.72;100.00;100443.31;10413179;28;20046;-65
2022/10/21 11:55:38;;;;;;;1.65;1.35;;;;;;;18.33;100.00;100443.47;10412661;28;20050;-64
2022/10/21 12:00:53;;;;;;;2.53;1.42;;;;;;;18.32;100.00;100432.06;10411939;28;20084;-63
2022/10/21 12:06:03;;;;;;;2.38;1.40;;;;;;;18.12;100.00;100433.69;10411721;28;20080;-63
2022/10/21 12:11:11;;;;;;;2.65;1.20;;;;;;;18.30;100.00;100444.56;10420233;28;20528;-63
2022/10/21 12:16:19;;;;;;;3.58;1.38;;;;;;;18.67;100.00;100435.41;10420200;28;20053;-62
2022/10/21 12:21:25;;;;;;;1.60;1.08;;;;;;;19.26;100.00;100422.53;10480853;28;20098;-62
2022/10/21 12:26:36;;;;;;;1.70;1.30;;;;;;;18.75;100.00;100425.00;10502023;28;20049;-64
2022/10/21 12:31:54;;;;;;;3.80;1.38;;;;;;;18.62;100.00;100429.66;10473027;28;20053;-63
2022/10/21 12:36:57;;;;;;;2.05;1.27;;;;;;;18.64;100.00;100433.84;10454638;28;20128;-66
2022/10/21 12:42:11;;;;;;;1.20;1.17;;;;;;;18.47;99.47;100439.72;10460314;28;20057;-64
2022/10/21 12:47:44;;;;;;;1.17;1.10;;;;;;;18.71;98.72;100434.16;10460919;28;20056;-64
2022/10/21 12:53:02;;;;;;;2.20;1.10;;;;;;;18.46;100.00;100430.94;10458852;28;20109;-64
2022/10/21 12:58:22;;;;;;;1.13;1.02;;;;;;;18.59;100.00;100440.47;10459845;28;20045;-62
2022/10/21 13:03:53;;;;;;;2.03;1.20;;;;;;;18.59;100.00;100435.19;10483518;28;20385;-63
2022/10/21 13:08:56;;;;;;;2.30;1.27;;;;;;;18.77;97.46;100432.81;10500683;28;20094;-63
2022/10/21 13:14:29;;;;;;;4.57;1.30;;;;;;;20.21;95.82;100437.31;10499981;28;20078;-65
2022/10/21 13:19:34;;;;;;;2.10;1.20;;;;;;;19.81;99.79;100437.22;10499199;28;20492;-62
2022/10/21 13:24:37;;;;;;;1.40;1.15;;;;;;;19.92;97.72;100438.06;10500009;28;20564;-64
2022/10/21 13:29:48;;;;;;;2.20;1.20;;;;;;;19.38;94.29;100460.34;10500125;28;20496;-65
2022/10/21 13:35:31;;;;;;;1.48;1.30;;;;;;;18.84;98.39;100449.84;10497178;28;20480;-62
2022/10/21 13:40:44;;;;;;;2.83;1.25;;;;;;;19.15;97.68;100443.78;10453477;28;20053;-60
2022/10/21 13:45:49;;;;;;;1.65;1.13;;;;;;;19.01;95.71;100437.00;10457761;28;20045;-62
2022/10/21 13:50:53;;;;;;;4.68;1.40;;;;;;;19.04;98.47;100448.16;10457902;28;20053;-63
2022/10/21 13:56:00;;;;;;;1.40;1.30;;;;;;;19.34;95.26;100444.84;10457945;28;20059;-63
2022/10/21 14:01:11;;;;;;;2.80;1.88;;;;;;;19.17;96.87;100452.44;10457310;28;20053;-62
2022/10/21 14:06:25;;;;;;;4.60;1.30;;;;;;;18.99;95.79;100447.69;10455378;28;20052;-63
2022/10/21 14:11:30;;;;;;;5.00;1.90;;;;;;;19.23;98.93;100443.16;10459938;28;20141;-62
2022/10/21 14:16:39;;;;;;;3.40;1.75;;;;;;;19.05;100.00;100441.06;10497337;28;20102;-62
2022/10/21 14:21:47;;;;;;;2.47;1.50;;;;;;;18.98;98.38;100446.03;10497511;28;20055;-63
2022/10/21 14:26:49;;;;;;;1.80;1.20;;;;;;;18.89;98.91;100452.09;10496052;28;20090;-63
2022/10/21 14:31:51;;;;;;;3.80;1.67;;;;;;;18.78;100.00;100456.47;10496775;28;20044;-64
2022/10/21 14:37:05;;;;;;;2.05;1.40;;;;;;;18.88;100.00;100455.69;10476874;28;20048;-63
2022/10/21 14:42:16;;;;;;;4.97;1.75;;;;;;;18.85;97.94;100456.78;10497269;28;20049;-65
2022/10/21 14:47:21;;;;;;;2.87;1.50;;;;;;;18.75;98.69;100459.38;10497256;28;20059;-62
2022/10/21 14:52:35;;;;;;;4.97;1.40;;;;;;;18.67;99.56;100453.88;10496587;28;20302;-62
2022/10/21 14:57:42;;;;;;;1.73;1.60;;;;;;;18.68;99.29;100465.31;10496512;28;20052;-64
2022/10/21 15:02:44;;;;;;;3.03;1.58;;;;;;;18.53;98.85;100453.25;10496359;28;20458;-64
2022/10/21 15:07:47;;;;;;;5.20;1.60;;;;;;;18.59;97.79;100456.34;10493862;28;20090;-63
2022/10/21 15:12:53;;;;;;;4.20;1.67;;;;;;;18.46;95.95;100444.16;10495897;28;20424;-65
2022/10/21 15:17:59;;;;;;;3.15;1.45;;;;;;;18.39;99.65;100448.25;10495980;28;20488;-64
2022/10/21 15:23:02;;;;;;;4.70;1.67;;;;;;;18.18;98.11;100449.06;10495893;28;20508;-61
2022/10/21 15:28:10;;;;;;;3.17;1.48;;;;;;;18.23;96.66;100448.66;10496045;28;20048;-64
2022/10/21 15:33:13;;;;;;;3.05;1.70;;;;;;;18.33;99.80;100440.81;10494219;28;20049;-63
2022/10/21 15:38:16;;;;;;;1.88;1.60;;;;;;;18.06;98.30;100439.47;10494894;28;20048;-65
2022/10/21 15:43:17;;;;;;;2.50;1.55;;;;;;;18.02;99.79;100437.06;10494914;28;20106;-64
2022/10/21 15:48:19;;;;;;;2.80;1.30;;;;;;;17.90;100.00;100435.41;10495142;28;20044;-62
2022/10/21 15:53:22;;;;;;;2.15;1.80;;;;;;;17.72;100.00;100437.72;10495005;28;20053;-63
2022/10/21 15:58:24;;;;;;;4.68;1.83;;;;;;;17.56;100.00;100438.94;10494956;28;20052;-64
2022/10/21 16:03:27;;;;;;;2.00;1.60;;;;;;;17.38;100.00;100447.31;10492980;28;20110;-62
2022/10/21 16:08:30;;;;;;;2.45;1.55;;;;;;;17.24;100.00;100440.47;10494734;28;20049;-64
2022/10/21 16:13:32;;;;;;;2.03;1.40;;;;;;;17.08;100.00;100451.34;10494495;28;20454;-63
2022/10/21 16:18:34;;;;;;;3.65;1.60;;;;;;;16.85;100.00;100458.34;10494714;28;20045;-63
2022/10/21 16:23:38;;;;;;;3.58;1.63;;;;;;;16.71;100.00;100460.25;10492849;28;20454;-63
2022/10/21 16:28:40;;;;;;;2.70;1.55;;;;;;;16.64;100.00;100460.78;10492634;28;20040;-63
2022/10/21 16:33:42;;;;;;;;;;;;;;;16.36;100.00;100461.06;10492014;28;20052;-63
2022/10/21 16:38:46;;;;;;;;;;;;;;;16.14;100.00;100461.75;10493308;28;20229;-64
2022/10/21 16:43:48;;;;;;;5.88;2.03;;;;;;;15.96;100.00;100470.03;10492644;28;19946;-63
2022/10/21 16:48:50;;;;;;;2.45;1.90;;;;;;;15.91;100.00;100472.13;10492825;28;20074;-62
2022/10/21 16:53:54;;;;;;;3.22;2.10;;;;;;;15.86;100.00;100477.72;10495392;28;20052;-62
2022/10/21 16:58:56;;;;;;;3.85;2.30;;;;;;;15.82;100.00;100476.25;10499871;28;20488;-61
2022/10/21 17:03:57;;;;;;;;;;;;;;;15.87;100.00;100476.75;10498211;28;20048;-61
2022/10/21 17:09:00;;;;;;;7.27;2.60;;;;;;;15.86;100.00;100480.34;10499655;28;19959;-61
2022/10/21 17:14:05;;;;;;;2.85;2.00;;;;;;;15.75;100.00;100489.00;10499131;28;20740;-61
2022/10/21 17:19:07;;;;;;;3.65;1.85;;;;;;;15.68;100.00;100499.09;10499494;28;20053;-61
2022/10/21 17:24:14;;;;;;;5.20;1.95;;;;;;;15.60;100.00;100511.09;10499094;28;20049;-61
2022/10/21 17:29:16;;;;;;;5.35;2.50;;;;;;;15.58;100.00;100521.72;10499052;28;20048;-62
2022/10/21 17:34:26;;;;;;;;;;;;;;;15.49;100.00;100524.97;10496657;28;20489;-62
2022/10/21 17:39:29;;;;;;;2.65;1.90;;;;;;;15.44;100.00;100520.88;10498443;28;19920;-62
2022/10/21 17:44:31;;;;;;;6.68;1.90;;;;;;;15.65;100.00;100520.34;10498066;28;20117;-61
2022/10/21 17:49:32;;;;;;;;;;;;;;;15.43;100.00;100532.34;10498653;28;20068;-61
2022/10/21 17:54:35;;;;;;;2.30;2.10;;;;;;;15.40;100.00;100531.72;10497732;28;19943;-61
2022/10/21 17:59:37;;;;;;;7.32;2.10;;;;;;;15.38;100.00;100537.06;10497622;28;20174;-61
2022/10/21 18:04:38;;;;;;;5.90;2.30;;;;;;;15.35;100.00;100545.16;10494808;28;20085;-64
2022/10/21 18:09:41;;;;;;;2.50;1.90;;;;;;;15.18;100.00;100544.53;10497817;28;20045;-64
2022/10/21 18:14:43;;;;;;;4.00;2.10;;;;;;;15.02;100.00;100549.94;10497523;28;20461;-63
2022/10/21 18:19:45;;;;;;;;;;;;;;;15.02;100.00;100557.00;10497338;28;20493;-62
2022/10/21 18:24:51;;;;;;;3.75;2.10;;;;;;;15.10;100.00;100567.84;10497405;28;20395;-62
2022/10/21 18:29:53;;;;;;;3.65;1.85;;;;;;;15.01;100.00;100563.19;10496953;28;20052;-63
2022/10/21 18:34:54;;;;;;;;;;;;;;;14.90;100.00;100567.38;10494070;28;20052;-63
2022/10/21 18:39:59;;;;;;;6.75;2.10;;;;;;;14.84;100.00;100573.00;10495955;28;20285;-64
2022/10/21 18:45:00;;;;;;;5.75;2.20;;;;;;;14.86;100.00;100573.78;10496630;28;20068;-63
2022/10/21 18:50:03;;;;;;;;;;;;;;;14.90;100.00;100577.88;10496089;28;20423;-61
2022/10/21 18:55:06;;;;;;;2.85;1.95;;;;;;;14.79;100.00;100569.84;10495372;28;20396;-62
2022/10/21 19:00:11;;;;;;;7.75;2.60;;;;;;;14.83;100.00;100576.59;10494977;28;20052;-62
2022/10/21 19:05:12;;;;;;;3.80;2.10;;;;;;;14.81;100.00;100570.56;10492476;28;20102;-63
2022/10/21 19:10:15;;;;;;;3.90;2.13;;;;;;;14.82;100.00;100566.19;10495063;28;20083;-63
2022/10/21 19:15:17;;;;;;;3.50;2.35;;;;;;;14.73;100.00;100559.69;10493743;28;20492;-62
2022/10/21 19:20:19;;;;;;;5.88;2.50;;;;;;;14.66;100.00;100561.88;10495006;28;20044;-61
2022/10/21 19:25:23;;;;;;;3.90;2.42;;;;;;;14.58;100.00;100559.75;10494499;28;20539;-63
2022/10/21 19:30:25;;;;;;;4.25;2.15;;;;;;;14.53;100.00;100556.56;10494370;28;20048;-62
2022/10/21 19:35:27;;;;;;;5.03;2.15;;;;;;;14.52;100.00;100552.25;10491876;28;20053;-62
2022/10/21 19:40:31;;;;;;;;;;;;;;;14.36;100.00;100553.25;10494710;28;20070;-62
2022/10/21 19:45:34;;;;;;;3.30;2.17;;;;;;;14.27;100.00;100564.31;10493971;28;20161;-61
2022/10/21 19:50:36;;;;;;;6.20;2.50;;;;;;;14.13;100.00;100563.38;10493732;28;20059;-62
2022/10/21 19:55:40;;;;;;;7.05;2.97;;;;;;;14.07;100.00;100569.03;10492461;28;20098;-62
2022/10/21 20:00:41;;;;;;;3.85;2.47;;;;;;;14.00;100.00;100572.97;10492634;28;20048;-62
2022/10/21 20:05:43;;;;;;;4.20;2.78;;;;;;;13.91;100.00;100579.59;10491094;28;20106;-62
2022/10/21 20:10:57;;;;;;;4.55;2.30;;;;;;;13.90;100.00;100575.31;10493335;28;20053;-62
2022/10/21 20:16:00;;;;;;;2.92;2.15;;;;;;;13.86;100.00;100582.50;10493843;28;20049;-62
2022/10/21 20:21:07;;;;;;;6.30;2.40;;;;;;;13.97;100.00;100575.78;10493684;28;20059;-63
2022/10/21 20:26:11;;;;;;;3.72;2.75;;;;;;;13.77;100.00;100588.31;10494329;28;20059;-63
2022/10/21 20:31:15;;;;;;;5.68;2.75;;;;;;;13.65;100.00;100593.34;10501744;28;20086;-63
2022/10/21 20:36:21;;;;;;;4.53;2.90;;;;;;;13.64;100.00;100598.69;10499255;28;20401;-62
2022/10/21 20:41:32;;;;;;;5.22;2.58;;;;;;;13.62;100.00;100611.06;10502069;28;20420;-62
2022/10/21 20:46:34;;;;;;;5.75;2.60;;;;;;;13.50;100.00;100607.38;10502485;28;20056;-63
2022/10/21 20:51:40;;;;;;;5.18;2.67;;;;;;;13.38;100.00;100607.13;10501933;28;20059;-63
2022/10/21 20:56:44;;;;;;;3.65;2.70;;;;;;;13.35;100.00;100604.66;10502031;28;20049;-63
2022/10/21 21:01:47;;;;;;;4.45;2.83;;;;;;;13.30;100.00;100613.72;10501286;28;20408;-61
2022/10/21 21:06:50;;;;;;;5.38;2.47;;;;;;;13.26;100.00;100618.31;10498623;28;20094;-63
2022/10/21 21:11:53;;;;;;;3.78;2.25;;;;;;;13.31;100.00;100623.31;10501012;28;20121;-63
2022/10/21 21:16:55;;;;;;;6.38;2.53;;;;;;;13.24;100.00;100625.44;10500417;28;20538;-62
2022/10/21 21:21:57;;;;;;;5.05;2.80;;;;;;;13.25;100.00;100627.13;10500947;28;20106;-62
2022/10/21 21:27:00;;;;;;;4.95;2.85;;;;;;;13.25;100.00;100619.25;10501158;28;20102;-63
2022/10/21 21:32:03;;;;;;;6.63;2.85;;;;;;;13.33;100.00;100617.03;10500026;28;20492;-62
2022/10/21 21:37:05;;;;;;;4.00;2.63;;;;;;;13.25;100.00;100619.25;10498032;28;20202;-62
2022/10/21 21:42:08;;;;;;;4.63;3.05;;;;;;;13.21;100.00;100622.97;10498961;28;20066;-63
2022/10/21 21:47:10;;;;;;;3.42;2.53;;;;;;;13.23;100.00;100621.09;10500004;28;20052;-63
2022/10/21 21:52:13;;;;;;;8.93;3.58;;;;;;;13.19;100.00;100624.84;10499583;28;20048;-62
2022/10/21 21:57:17;;;;;;;7.75;3.10;;;;;;;13.07;100.00;100629.84;10499640;28;20048;-62
2022/10/21 22:02:19;;;;;;;5.32;2.95;;;;;;;12.90;100.00;100620.31;10499768;28;20052;-63
2022/10/21 22:07:20;;;;;;;6.03;3.30;;;;;;;12.83;100.00;100619.81;10496386;28;20056;-63
2022/10/21 22:12:25;;;;;;;5.68;3.60;;;;;;;12.80;100.00;100619.97;10498783;28;20056;-62
2022/10/21 22:17:27;;;;;;;4.88;3.45;;;;;;;12.68;100.00;100621.50;10498341;28;20057;-62
2022/10/21 22:22:30;;;;;;;6.60;3.55;;;;;;;12.56;100.00;100614.34;10498400;28;20075;-62
2022/10/21 22:27:33;;;;;;;7.35;3.78;;;;;;;12.56;100.00;100614.34;10497946;28;20520;-63
2022/10/21 22:32:37;;;;;;;5.40;3.53;;;;;;;12.46;100.00;100611.38;10497964;28;20044;-62
2022/10/21 22:37:39;;;;;;;7.53;3.80;;;;;;;12.35;100.00;100612.78;10494901;28;20040;-62
2022/10/21 22:42:42;;;;;;;7.15;3.97;;;;;;;12.37;100.00;100615.31;10497796;28;20048;-61
2022/10/21 22:47:43;;;;;;;5.22;3.67;;;;;;;12.34;100.00;100613.72;10497148;28;20048;-61
2022/10/21 22:52:46;;;;;;;5.55;3.88;;;;;;;12.33;100.00;100612.03;10497145;28;20071;-62
2022/10/21 22:57:50;;;;;;;24.98;4.18;;;;;;;12.21;100.00;100602.19;10497046;28;20044;-62
2022/10/21 23:02:51;;;;;;;9.32;3.80;;;;;;;11.80;100.00;100599.03;10496361;28;20469;-62
2022/10/21 23:07:53;;;;;;;9.75;3.95;;;;;;;11.59;100.00;100598.34;10493795;28;20488;-62